createdAt,value
2022-07-26T00:00:58.550Z,8.55
2022-07-26T00:03:32.423Z,7.60
2022-07-26T00:06:03.711Z,7.97
2022-07-26T00:08:35.012Z,8.80
2022-07-26T00:11:07.592Z,7.70
2022-07-26T00:13:39.073Z,7.28
2022-07-26T00:16:10.562Z,6.78
2022-07-26T00:18:41.829Z,7.85
2022-07-26T00:21:13.336Z,6.28
2022-07-26T00:23:44.911Z,5.97
2022-07-26T00:26:16.217Z,5.78
2022-07-26T00:28:48.558Z,5.97
2022-07-26T00:31:20.086Z,5.63
2022-07-26T00:33:51.434Z,5.85
2022-07-26T00:36:22.851Z,5.53
2022-07-26T00:38:54.324Z,6.20
2022-07-26T00:41:25.443Z,5.47
2022-07-26T00:44:19.125Z,5.55
2022-07-26T00:46:50.660Z,5.50
2022-07-26T00:49:21.961Z,5.80
2022-07-26T00:51:53.208Z,5.90
2022-07-26T00:54:24.610Z,6.20
2022-07-26T00:56:56.394Z,5.35
2022-07-26T00:59:29.038Z,5.68
2022-07-26T01:02:00.807Z,5.30
2022-07-26T01:04:31.973Z,5.72
2022-07-26T01:07:14.983Z,6.03
2022-07-26T01:09:47.529Z,5.93
2022-07-26T01:12:19.711Z,5.60
2022-07-26T01:14:55.155Z,5.70
2022-07-26T01:17:26.602Z,6.07
2022-07-26T01:19:57.923Z,5.82
2022-07-26T01:22:30.709Z,6.28
2022-07-26T01:25:02.751Z,6.40
2022-07-26T01:27:35.822Z,5.50
2022-07-26T01:30:08.583Z,5.57
2022-07-26T01:32:40.099Z,5.53
2022-07-26T01:35:12.110Z,5.85
2022-07-26T01:37:43.339Z,5.70
2022-07-26T01:40:16.223Z,5.90
2022-07-26T01:42:47.555Z,6.05
2022-07-26T01:48:27.452Z,6.18
2022-07-26T01:51:01.213Z,6.03
2022-07-26T01:56:17.223Z,5.50
2022-07-26T02:01:38.824Z,5.75
2022-07-26T02:04:32.565Z,5.93
2022-07-26T02:07:05.456Z,6.03
2022-07-26T02:10:19.136Z,5.95
2022-07-26T02:12:50.374Z,5.97
2022-07-26T02:15:22.650Z,6.13
2022-07-26T02:17:54.028Z,5.95
2022-07-26T02:20:46.682Z,6.15
2022-07-26T02:23:19.230Z,6.75
2022-07-26T02:25:50.432Z,6.38
2022-07-26T02:28:23.736Z,6.35
2022-07-26T02:30:55.253Z,6.95
2022-07-26T02:33:49.078Z,6.05
2022-07-26T02:36:23.630Z,5.93
2022-07-26T02:39:16.813Z,6.28
2022-07-26T02:41:47.961Z,6.85
2022-07-26T02:44:22.245Z,6.18
2022-07-26T02:46:54.724Z,6.00
2022-07-26T02:49:26.209Z,5.00
2022-07-26T02:51:57.452Z,5.00
2022-07-26T02:54:28.939Z,5.32
2022-07-26T02:57:00.349Z,4.90
2022-07-26T02:59:51.978Z,5.05
2022-07-26T03:02:43.384Z,4.90
2022-07-26T03:05:15.062Z,4.97
2022-07-26T03:07:46.327Z,5.63
2022-07-26T03:10:20.553Z,5.80
2022-07-26T03:12:53.068Z,6.53
2022-07-26T03:15:28.267Z,6.18
2022-07-26T03:17:59.521Z,6.88
2022-07-26T03:20:31.014Z,6.70
2022-07-26T03:23:02.236Z,7.63
2022-07-26T03:25:33.460Z,7.13
2022-07-26T03:34:03.303Z,7.38
2022-07-26T03:36:54.536Z,8.07
2022-07-26T03:39:26.971Z,7.10
2022-07-26T03:41:58.227Z,7.65
2022-07-26T03:44:29.655Z,7.15
2022-07-26T03:47:01.626Z,6.45
2022-07-26T03:49:33.226Z,7.75
2022-07-26T03:54:49.589Z,7.60
2022-07-26T03:57:20.913Z,6.80
2022-07-26T04:00:11.638Z,6.70
2022-07-26T04:02:43.540Z,6.95
2022-07-26T04:05:15.027Z,7.40
2022-07-26T04:07:53.193Z,6.93
2022-07-26T04:10:25.423Z,6.65
2022-07-26T04:12:56.598Z,7.05
2022-07-26T04:15:27.859Z,7.78
2022-07-26T04:17:59.269Z,6.78
2022-07-26T04:20:32.008Z,6.82
2022-07-26T04:23:04.796Z,6.85
2022-07-26T04:25:43.057Z,6.90
2022-07-26T04:28:15.976Z,7.03
2022-07-26T04:30:48.456Z,9.98
2022-07-26T04:33:20.117Z,11.45
2022-07-26T04:35:51.547Z,9.85
2022-07-26T04:38:23.141Z,9.15
2022-07-26T04:44:07.963Z,8.38
2022-07-26T04:46:39.512Z,7.65
2022-07-26T04:49:16.575Z,7.25
2022-07-26T04:51:48.940Z,7.65
2022-07-26T04:54:24.195Z,7.10
2022-07-26T04:56:55.479Z,7.32
2022-07-26T04:59:58.094Z,7.45
2022-07-26T05:03:21.159Z,7.82
2022-07-26T05:05:52.508Z,7.60
2022-07-26T05:08:23.850Z,7.88
2022-07-26T05:11:00.772Z,7.93
2022-07-26T05:13:32.362Z,6.85
2022-07-26T05:16:44.450Z,7.13
2022-07-26T05:19:19.558Z,8.25
2022-07-26T05:22:11.688Z,7.72
2022-07-26T05:24:44.220Z,7.43
2022-07-26T05:27:34.981Z,7.75
2022-07-26T05:30:07.835Z,7.25
2022-07-26T05:32:40.893Z,7.60
2022-07-26T05:35:12.395Z,7.50
2022-07-26T05:37:43.567Z,7.18
2022-07-26T05:40:39.278Z,8.20
2022-07-26T05:43:16.122Z,7.57
2022-07-26T05:45:47.646Z,7.00
2022-07-26T05:48:19.058Z,7.47
2022-07-26T05:50:51.253Z,7.13
2022-07-26T05:53:43.532Z,6.95
2022-07-26T05:57:01.804Z,7.40
2022-07-26T06:00:16.735Z,7.05
2022-07-26T06:14:14.345Z,7.43
2022-07-26T06:17:37.236Z,7.03
2022-07-26T06:20:34.033Z,6.95
2022-07-26T06:23:07.093Z,6.90
2022-07-26T06:39:51.383Z,6.75
2022-07-26T06:42:26.787Z,7.45
2022-07-26T06:45:23.452Z,6.60
2022-07-26T06:48:37.178Z,7.28
2022-07-26T06:51:53.028Z,6.93
2022-07-26T07:13:59.571Z,7.03
2022-07-26T07:16:52.224Z,7.10
2022-07-26T07:19:43.493Z,7.03
2022-07-26T07:23:01.876Z,7.15
2022-07-26T07:25:33.472Z,6.15
2022-07-26T07:28:55.847Z,6.97
2022-07-26T07:31:54.343Z,6.57
2022-07-26T07:50:05.730Z,6.78
2022-07-26T07:52:59.326Z,6.45
2022-07-26T07:56:38.975Z,6.38
2022-07-26T07:59:15.743Z,6.82
2022-07-26T08:04:40.735Z,6.57
2022-07-26T08:18:36.437Z,6.45
2022-07-26T08:21:13.454Z,7.20
2022-07-26T08:42:22.521Z,6.80
2022-07-26T08:45:41.036Z,6.70
2022-07-26T08:48:55.155Z,6.25
2022-07-26T08:51:48.189Z,6.13
2022-07-26T08:54:23.842Z,6.63
2022-07-26T09:09:41.281Z,6.88
2022-07-26T09:12:42.681Z,7.15
2022-07-26T09:16:06.462Z,7.72
2022-07-26T09:18:58.794Z,6.95
2022-07-26T09:22:45.647Z,6.93
2022-07-26T09:25:26.367Z,7.13
2022-07-26T09:49:11.023Z,7.65
2022-07-26T09:52:16.087Z,6.90
2022-07-26T09:55:41.029Z,7.40
2022-07-26T10:08:19.828Z,6.90
2022-07-26T10:11:32.537Z,6.78
2022-07-26T10:17:35.251Z,6.97
2022-07-26T10:20:32.630Z,7.07
2022-07-26T10:37:59.112Z,7.63
2022-07-26T10:40:55.177Z,7.43
2022-07-26T10:44:27.430Z,6.88
2022-07-26T10:47:09.141Z,6.88
2022-07-26T10:50:27.449Z,6.93
2022-07-26T10:53:05.854Z,6.43
2022-07-26T10:55:52.129Z,7.40
2022-07-26T10:59:04.972Z,6.78
2022-07-26T11:17:12.568Z,7.40
2022-07-26T11:19:44.329Z,7.20
2022-07-26T11:22:45.003Z,7.17
2022-07-26T11:25:36.384Z,7.95
2022-07-26T11:28:29.623Z,7.45
2022-07-26T11:31:03.738Z,7.85
2022-07-26T11:34:06.459Z,8.40
2022-07-26T11:37:05.203Z,8.60
2022-07-26T11:50:23.149Z,7.80
2022-07-26T11:53:23.807Z,7.40
2022-07-26T11:56:24.479Z,7.97
2022-07-26T11:59:22.897Z,8.55
2022-07-26T12:02:39.909Z,7.93
2022-07-26T12:05:42.732Z,7.97
2022-07-26T12:08:15.679Z,8.05
2022-07-26T12:41:52.343Z,8.17
2022-07-26T12:45:27.085Z,8.02
2022-07-26T12:48:43.189Z,7.45
2022-07-26T12:52:14.082Z,8.05
2022-07-26T12:55:31.678Z,8.50
2022-07-26T13:16:53.811Z,8.18
2022-07-26T13:19:47.770Z,8.93
2022-07-26T13:23:17.883Z,8.52
2022-07-26T13:29:23.706Z,9.15
2022-07-26T13:32:35.147Z,7.93
2022-07-26T13:35:31.342Z,8.70
2022-07-26T13:41:56.021Z,7.63
2022-07-26T13:47:29.944Z,8.43
2022-07-26T13:50:03.579Z,8.40
2022-07-26T13:57:02.306Z,8.95
2022-07-26T14:16:05.591Z,9.05
2022-07-26T14:19:02.440Z,8.43
2022-07-26T14:22:00.798Z,9.02
2022-07-26T14:25:16.147Z,8.90
2022-07-26T14:27:50.863Z,9.27
2022-07-26T14:30:25.602Z,8.50
2022-07-26T14:45:41.277Z,8.90
2022-07-26T14:49:17.334Z,8.45
2022-07-26T14:52:10.742Z,9.93
2022-07-26T15:08:22.376Z,9.18
2022-07-26T15:11:42.545Z,8.82
2022-07-26T15:14:40.849Z,9.00
2022-07-26T15:31:14.867Z,9.15
2022-07-26T15:34:10.471Z,9.27
2022-07-26T15:37:10.823Z,8.80
2022-07-26T15:40:25.396Z,8.63
2022-07-26T15:43:44.091Z,8.60
2022-07-26T15:47:52.166Z,9.40
2022-07-26T15:50:55.799Z,9.63
2022-07-26T16:15:27.750Z,9.85
2022-07-26T16:18:22.312Z,9.75
2022-07-26T16:37:20.530Z,9.00
2022-07-26T16:40:12.371Z,9.15
2022-07-26T16:43:09.478Z,10.30
2022-07-26T16:45:44.926Z,9.10
2022-07-26T16:51:15.260Z,9.35
2022-07-26T16:54:27.921Z,8.75
2022-07-26T16:57:05.038Z,8.75
2022-07-26T16:59:42.470Z,9.35
2022-07-26T17:02:18.858Z,9.05
2022-07-26T17:05:53.094Z,9.20
2022-07-26T17:08:46.203Z,8.63
2022-07-26T17:11:18.165Z,8.20
2022-07-26T17:13:54.667Z,8.48
2022-07-26T17:16:27.510Z,8.70
2022-07-26T17:19:01.933Z,9.20
2022-07-26T17:21:37.311Z,9.60
2022-07-26T17:24:11.083Z,8.57
2022-07-26T17:26:43.823Z,8.57
2022-07-26T17:29:16.863Z,8.85
2022-07-26T17:32:09.631Z,9.13
2022-07-26T17:35:00.853Z,8.65
2022-07-26T17:37:32.572Z,9.50
2022-07-26T17:40:29.603Z,8.98
2022-07-26T17:43:04.143Z,9.32
2022-07-26T17:45:56.993Z,8.95
2022-07-26T17:48:30.101Z,9.68
2022-07-26T17:51:01.863Z,8.25
2022-07-26T17:53:36.127Z,8.35
2022-07-26T17:56:27.864Z,8.80
2022-07-26T17:59:17.921Z,8.00
2022-07-26T18:01:53.434Z,9.45
2022-07-26T18:04:27.291Z,8.85
2022-07-26T18:06:58.743Z,8.45
2022-07-26T18:09:51.383Z,8.55
2022-07-26T18:12:23.183Z,8.32
2022-07-26T18:15:14.619Z,7.88
2022-07-26T18:17:48.873Z,9.05
2022-07-26T18:20:20.531Z,9.13
2022-07-26T18:22:56.981Z,7.82
2022-07-26T18:25:31.492Z,8.40
2022-07-26T18:28:07.088Z,8.27
2022-07-26T18:30:39.285Z,8.35
2022-07-26T18:33:13.487Z,9.20
2022-07-26T18:35:45.086Z,8.75
2022-07-26T18:38:16.961Z,7.80
2022-07-26T18:41:08.791Z,8.73
2022-07-26T18:43:40.375Z,7.80
2022-07-26T18:46:12.237Z,8.50
2022-07-26T18:48:43.918Z,8.48
2022-07-26T18:51:15.376Z,8.50
2022-07-26T18:53:46.894Z,8.80
2022-07-26T18:56:18.434Z,8.45
2022-07-26T18:58:50.024Z,8.63
2022-07-26T19:01:21.611Z,8.43
2022-07-26T19:03:53.191Z,8.20
2022-07-26T19:06:24.848Z,8.23
2022-07-26T19:08:56.311Z,8.68
2022-07-26T19:11:31.018Z,7.83
2022-07-26T19:14:03.358Z,8.63
2022-07-26T19:16:35.356Z,8.25
2022-07-26T19:19:06.835Z,8.50
2022-07-26T19:21:38.285Z,8.65
2022-07-26T19:24:09.783Z,8.38
2022-07-26T19:26:41.292Z,8.77
2022-07-26T19:29:13.433Z,8.00
2022-07-26T19:31:47.145Z,8.32
2022-07-26T19:34:18.580Z,8.23
2022-07-26T19:36:49.883Z,8.60
2022-07-26T19:39:22.359Z,8.35
2022-07-26T19:41:54.098Z,8.10
2022-07-26T19:44:25.852Z,8.32
2022-07-26T19:46:58.046Z,8.40
2022-07-26T19:49:30.263Z,8.40
2022-07-26T19:52:01.704Z,8.18
2022-07-26T19:54:33.289Z,8.02
2022-07-26T19:57:04.947Z,7.85
2022-07-26T19:59:36.541Z,7.88
2022-07-26T20:02:08.004Z,8.13
2022-07-26T20:04:59.569Z,8.10
2022-07-26T20:07:30.976Z,8.40
2022-07-26T20:10:03.732Z,8.65
2022-07-26T20:12:35.911Z,8.20
2022-07-26T20:15:09.585Z,8.00
2022-07-26T20:20:14.004Z,8.25
2022-07-26T20:22:45.517Z,7.97
2022-07-26T20:25:21.382Z,8.18
2022-07-26T20:27:54.408Z,8.05
2022-07-26T20:30:25.869Z,8.73
2022-07-26T20:32:57.245Z,8.00
2022-07-26T20:35:28.849Z,7.72
2022-07-26T20:38:00.562Z,7.85
2022-07-26T20:40:32.545Z,8.13
2022-07-26T20:43:05.669Z,7.93
2022-07-26T20:45:37.431Z,8.27
2022-07-26T20:48:09.473Z,8.30
2022-07-26T20:50:41.267Z,7.45
2022-07-26T20:53:12.858Z,7.60
2022-07-26T20:55:44.518Z,8.57
2022-07-26T20:58:17.695Z,7.60
2022-07-26T21:00:49.217Z,7.22
2022-07-26T21:03:23.822Z,7.57
2022-07-26T21:05:55.039Z,7.80
2022-07-26T21:08:26.333Z,7.95
2022-07-26T21:10:58.016Z,7.75
2022-07-26T21:13:29.683Z,8.10
2022-07-26T21:16:01.097Z,7.68
2022-07-26T21:18:34.207Z,7.72
2022-07-26T21:21:05.920Z,7.22
2022-07-26T21:23:37.420Z,8.02
2022-07-26T21:26:08.775Z,7.65
2022-07-26T21:28:40.376Z,8.45
2022-07-26T21:31:11.927Z,7.70
2022-07-26T21:33:45.470Z,7.35
2022-07-26T21:36:16.854Z,6.85
2022-07-26T21:38:48.186Z,6.75
2022-07-26T21:41:19.469Z,7.65
2022-07-26T21:43:50.989Z,8.10
2022-07-26T21:46:22.727Z,7.47
2022-07-26T21:48:54.622Z,7.53
2022-07-26T21:51:26.326Z,7.80
2022-07-26T21:53:58.525Z,7.38
2022-07-26T21:56:33.051Z,7.35
2022-07-26T22:01:48.455Z,7.55
2022-07-26T22:04:20.035Z,7.07
2022-07-26T22:06:51.387Z,7.43
2022-07-26T22:09:22.646Z,7.55
2022-07-26T22:11:54.056Z,7.60
2022-07-26T22:14:26.301Z,7.10
2022-07-26T22:16:57.655Z,7.72
2022-07-26T22:19:29.199Z,7.45
2022-07-26T22:22:00.693Z,7.70
2022-07-26T22:24:32.133Z,7.60
2022-07-26T22:27:03.412Z,7.57
2022-07-26T22:29:34.688Z,7.45
2022-07-26T22:32:11.492Z,7.50
2022-07-26T22:34:42.680Z,7.65
2022-07-26T22:37:13.951Z,7.18
2022-07-26T22:39:45.158Z,8.05
2022-07-26T22:42:16.689Z,7.07
2022-07-26T22:44:48.086Z,6.35
2022-07-26T22:47:19.530Z,7.38
2022-07-26T22:49:51.072Z,7.30
2022-07-26T22:52:23.116Z,7.88
2022-07-26T22:54:54.707Z,7.05
2022-07-26T22:57:26.440Z,6.70
2022-07-26T22:59:57.945Z,6.82
2022-07-26T23:02:29.306Z,7.03
2022-07-26T23:05:00.777Z,7.10
2022-07-26T23:07:34.283Z,6.90
2022-07-26T23:10:08.665Z,8.38
2022-07-26T23:15:14.325Z,7.47
2022-07-26T23:17:45.519Z,7.40
2022-07-26T23:20:17.188Z,7.50
2022-07-26T23:22:48.639Z,7.22
2022-07-26T23:25:20.103Z,7.30
2022-07-26T23:27:51.649Z,7.70
2022-07-26T23:30:23.333Z,7.57
2022-07-26T23:32:54.627Z,7.93
2022-07-26T23:35:26.036Z,7.10
2022-07-26T23:37:57.563Z,6.97
2022-07-26T23:40:29.457Z,7.68
2022-07-26T23:43:21.018Z,7.18
2022-07-26T23:45:52.431Z,7.18
2022-07-26T23:48:24.022Z,7.07
2022-07-26T23:50:55.584Z,6.90
2022-07-26T23:53:27.352Z,7.53
2022-07-26T23:55:58.722Z,6.47
2022-07-26T23:58:30.039Z,7.18
